createdAt,value
2023-03-13T00:00:05.168Z,25.89
2023-03-13T00:01:44.973Z,25.89
2023-03-13T00:03:24.707Z,25.89
2023-03-13T00:05:04.458Z,25.89
2023-03-13T00:06:44.231Z,25.89
2023-03-13T00:08:23.996Z,25.89
2023-03-13T00:10:03.763Z,25.89
2023-03-13T00:11:43.532Z,25.88
2023-03-13T00:13:23.302Z,25.87
2023-03-13T00:15:03.072Z,25.88
2023-03-13T00:16:42.842Z,25.88
2023-03-13T00:18:22.610Z,25.88
2023-03-13T00:20:02.366Z,25.88
2023-03-13T00:21:42.130Z,25.87
2023-03-13T00:23:21.902Z,25.88
2023-03-13T00:25:01.667Z,25.88
2023-03-13T00:26:41.441Z,25.87
2023-03-13T00:28:21.218Z,25.87
2023-03-13T00:30:00.980Z,25.87
2023-03-13T00:31:40.816Z,25.87
2023-03-13T00:33:20.500Z,25.87
2023-03-13T00:35:00.289Z,25.87
2023-03-13T00:36:40.061Z,25.87
2023-03-13T00:38:19.793Z,25.85
2023-03-13T00:39:59.632Z,25.87
2023-03-13T00:41:39.350Z,25.86
2023-03-13T00:43:19.103Z,25.86
2023-03-13T00:44:58.915Z,25.86
2023-03-13T00:46:38.639Z,25.86
2023-03-13T00:48:18.401Z,25.86
2023-03-13T00:49:58.172Z,25.86
2023-03-13T00:51:37.927Z,25.86
2023-03-13T00:53:17.707Z,25.85
2023-03-13T00:54:57.478Z,25.85
2023-03-13T00:56:37.242Z,25.85
2023-03-13T00:58:17.005Z,25.85
2023-03-13T00:59:56.776Z,25.84
2023-03-13T01:01:36.541Z,25.85
2023-03-13T01:03:16.313Z,25.82
2023-03-13T01:04:56.089Z,25.84
2023-03-13T01:06:35.864Z,25.85
2023-03-13T01:08:15.626Z,25.85
2023-03-13T01:09:55.376Z,25.84
2023-03-13T01:11:35.184Z,25.84
2023-03-13T01:13:14.923Z,25.84
2023-03-13T01:14:54.682Z,25.84
2023-03-13T01:16:34.462Z,25.84
2023-03-13T01:18:14.227Z,25.84
2023-03-13T01:19:53.997Z,25.84
2023-03-13T01:21:33.768Z,25.83
2023-03-13T01:23:13.532Z,25.83
2023-03-13T01:24:53.292Z,25.83
2023-03-13T01:26:33.062Z,25.83
2023-03-13T01:28:12.834Z,25.8
2023-03-13T01:29:52.605Z,25.83
2023-03-13T01:31:32.362Z,25.83
2023-03-13T01:33:12.126Z,25.83
2023-03-13T01:34:51.913Z,25.82
2023-03-13T01:36:31.679Z,25.82
2023-03-13T01:38:11.440Z,25.82
2023-03-13T01:39:51.213Z,25.82
2023-03-13T01:41:30.959Z,25.82
2023-03-13T01:43:10.749Z,25.82
2023-03-13T01:44:50.499Z,25.81
2023-03-13T01:46:30.267Z,25.82
2023-03-13T01:48:10.047Z,25.81
2023-03-13T01:49:49.815Z,25.81
2023-03-13T01:51:29.570Z,25.81
2023-03-13T01:53:09.347Z,25.75
2023-03-13T01:54:49.114Z,25.81
2023-03-13T01:56:28.886Z,25.81
2023-03-13T01:58:08.655Z,25.81
2023-03-13T01:59:48.408Z,25.8
2023-03-13T02:01:28.177Z,25.81
2023-03-13T02:03:07.949Z,25.8
2023-03-13T02:04:47.725Z,25.8
2023-03-13T02:06:27.469Z,25.8
2023-03-13T02:08:07.240Z,25.8
2023-03-13T02:09:47.030Z,25.79
2023-03-13T02:11:26.786Z,25.79
2023-03-13T02:13:06.546Z,25.79
2023-03-13T02:14:46.320Z,25.79
2023-03-13T02:16:26.079Z,25.79
2023-03-13T02:18:05.849Z,25.65
2023-03-13T02:19:45.608Z,25.79
2023-03-13T02:21:25.381Z,25.79
2023-03-13T02:23:05.178Z,25.79
2023-03-13T02:24:44.909Z,25.78
2023-03-13T02:26:24.676Z,25.79
2023-03-13T02:28:04.450Z,25.78
2023-03-13T02:29:44.217Z,25.78
2023-03-13T02:31:24.023Z,25.78
2023-03-13T02:33:03.779Z,25.78
2023-03-13T02:34:43.519Z,25.78
2023-03-13T02:36:23.282Z,25.78
2023-03-13T02:38:03.063Z,25.77
2023-03-13T02:39:42.820Z,25.77
2023-03-13T02:41:22.606Z,25.77
2023-03-13T02:43:02.348Z,25.63
2023-03-13T02:44:42.145Z,25.77
2023-03-13T02:46:21.897Z,25.77
2023-03-13T02:48:01.662Z,25.76
2023-03-13T02:49:41.447Z,25.76
2023-03-13T02:51:21.225Z,25.76
2023-03-13T02:53:00.958Z,25.76
2023-03-13T02:54:40.733Z,25.76
2023-03-13T02:56:20.519Z,25.76
2023-03-13T02:58:00.278Z,25.76
2023-03-13T02:59:40.038Z,25.76
2023-03-13T03:01:19.794Z,25.75
2023-03-13T03:02:59.556Z,25.75
2023-03-13T03:04:39.343Z,25.75
2023-03-13T03:06:19.102Z,25.75
2023-03-13T03:07:58.870Z,25.66
2023-03-13T03:09:38.640Z,25.75
2023-03-13T03:11:18.416Z,25.74
2023-03-13T03:12:58.185Z,25.74
2023-03-13T03:14:37.968Z,25.74
2023-03-13T03:16:17.720Z,25.74
2023-03-13T03:17:57.477Z,25.74
2023-03-13T03:19:37.313Z,25.74
2023-03-13T03:21:17.013Z,25.74
2023-03-13T03:22:56.762Z,25.74
2023-03-13T03:24:36.540Z,25.74
2023-03-13T03:26:16.300Z,25.74
2023-03-13T03:27:56.064Z,25.74
2023-03-13T03:29:35.842Z,25.73
2023-03-13T03:31:15.602Z,25.72
2023-03-13T03:32:55.364Z,25.73
2023-03-13T03:34:35.149Z,25.73
2023-03-13T03:36:14.951Z,25.73
2023-03-13T03:37:54.690Z,25.73
2023-03-13T03:39:34.435Z,25.72
2023-03-13T03:41:14.208Z,25.72
2023-03-13T03:42:53.977Z,25.72
2023-03-13T03:44:33.752Z,25.72
2023-03-13T03:46:13.501Z,25.72
2023-03-13T03:47:53.291Z,25.72
2023-03-13T03:49:33.063Z,25.71
2023-03-13T03:51:12.824Z,25.71
2023-03-13T03:52:52.581Z,25.71
2023-03-13T03:54:32.338Z,25.71
2023-03-13T03:56:12.116Z,25.7
2023-03-13T03:57:51.893Z,25.71
2023-03-13T03:59:31.664Z,25.71
2023-03-13T04:01:11.425Z,25.71
2023-03-13T04:02:51.203Z,25.71
2023-03-13T04:04:30.967Z,25.7
2023-03-13T04:06:10.717Z,25.7
2023-03-13T04:07:50.485Z,25.71
2023-03-13T04:09:30.270Z,25.7
2023-03-13T04:11:10.026Z,25.71
2023-03-13T04:12:49.798Z,25.7
2023-03-13T04:14:29.553Z,25.7
2023-03-13T04:16:09.324Z,25.7
2023-03-13T04:17:49.086Z,25.7
2023-03-13T04:19:28.861Z,25.69
2023-03-13T04:21:08.650Z,25.68
2023-03-13T04:22:48.402Z,25.69
2023-03-13T04:24:28.162Z,25.69
2023-03-13T04:26:07.941Z,25.69
2023-03-13T04:27:47.700Z,25.69
2023-03-13T04:29:27.470Z,25.69
2023-03-13T04:31:07.225Z,25.69
2023-03-13T04:32:47.003Z,25.69
2023-03-13T04:34:26.780Z,25.69
2023-03-13T04:36:06.537Z,25.68
2023-03-13T04:37:46.313Z,25.69
2023-03-13T04:39:26.066Z,25.68
2023-03-13T04:41:05.880Z,25.68
2023-03-13T04:42:45.611Z,25.68
2023-03-13T04:44:25.370Z,25.68
2023-03-13T04:46:05.146Z,25.66
2023-03-13T04:47:44.899Z,25.67
2023-03-13T04:49:24.686Z,25.68
2023-03-13T04:51:04.461Z,25.68
2023-03-13T04:52:44.214Z,25.68
2023-03-13T04:54:23.994Z,25.67
2023-03-13T04:56:03.761Z,25.67
2023-03-13T04:57:43.527Z,25.67
2023-03-13T04:59:23.279Z,25.67
2023-03-13T05:01:03.048Z,25.67
2023-03-13T05:02:42.817Z,25.67
2023-03-13T05:04:22.587Z,25.67
2023-03-13T05:06:02.359Z,25.67
2023-03-13T05:07:42.110Z,25.67
2023-03-13T05:09:21.891Z,25.67
2023-03-13T05:11:01.649Z,25.65
2023-03-13T05:12:41.410Z,25.67
2023-03-13T05:14:21.203Z,25.66
2023-03-13T05:16:00.951Z,25.65
2023-03-13T05:17:40.707Z,25.64
2023-03-13T05:19:20.487Z,25.64
2023-03-13T05:21:00.254Z,25.64
2023-03-13T05:22:40.025Z,25.63
2023-03-13T05:24:19.817Z,25.63
2023-03-13T05:25:59.562Z,25.63
2023-03-13T05:27:39.330Z,25.62
2023-03-13T05:29:19.098Z,25.64
2023-03-13T05:30:58.858Z,25.63
2023-03-13T05:32:38.622Z,25.63
2023-03-13T05:34:18.400Z,25.63
2023-03-13T05:35:58.222Z,25.6
2023-03-13T05:37:37.936Z,25.64
2023-03-13T05:39:17.691Z,25.64
2023-03-13T05:40:57.461Z,25.65
2023-03-13T05:42:37.221Z,25.66
2023-03-13T05:44:17.000Z,25.66
2023-03-13T05:45:56.795Z,25.68
2023-03-13T05:47:36.529Z,25.68
2023-03-13T05:49:16.315Z,25.69
2023-03-13T05:50:56.099Z,25.7
2023-03-13T05:52:35.853Z,25.7
2023-03-13T05:54:15.598Z,25.71
2023-03-13T05:55:55.367Z,25.72
2023-03-13T05:57:35.125Z,25.73
2023-03-13T05:59:14.890Z,25.75
2023-03-13T06:00:54.677Z,25.64
2023-03-13T06:02:34.430Z,25.78
2023-03-13T06:04:14.334Z,25.79
2023-03-13T06:05:53.975Z,25.79
2023-03-13T06:07:33.736Z,25.82
2023-03-13T06:09:13.626Z,25.83
2023-03-13T06:10:53.364Z,25.84
2023-03-13T06:12:33.061Z,25.85
2023-03-13T06:14:12.822Z,25.87
2023-03-13T06:15:52.585Z,25.95
2023-03-13T06:17:32.374Z,25.94
2023-03-13T06:19:12.206Z,25.96
2023-03-13T06:20:51.902Z,25.98
2023-03-13T06:22:31.666Z,25.99
2023-03-13T06:24:11.442Z,26.01
2023-03-13T06:25:51.195Z,26.01
2023-03-13T06:27:30.975Z,26.03
2023-03-13T06:29:10.744Z,26.04
2023-03-13T06:30:50.532Z,26.06
2023-03-13T06:32:30.311Z,26.05
2023-03-13T06:34:10.150Z,26.04
2023-03-13T06:35:49.830Z,26.06
2023-03-13T06:37:29.807Z,26.07
2023-03-13T06:39:09.521Z,26.07
2023-03-13T06:40:49.224Z,26.08
2023-03-13T06:42:29.022Z,26.12
2023-03-13T06:44:08.681Z,26.18
2023-03-13T06:45:48.463Z,26.22
2023-03-13T06:47:28.371Z,26.28
2023-03-13T06:49:08.084Z,26.31
2023-03-13T06:50:47.890Z,26.35
2023-03-13T06:52:27.630Z,26.34
2023-03-13T06:54:07.471Z,26.47
2023-03-13T06:57:26.902Z,26.53
2023-03-13T06:59:06.786Z,26.56
2023-03-13T07:00:46.370Z,26.6
2023-03-13T07:02:26.146Z,26.66
2023-03-13T07:04:06.081Z,26.74
2023-03-13T07:05:45.849Z,26.8
2023-03-13T07:07:25.664Z,26.89
2023-03-13T07:09:05.467Z,26.98
2023-03-13T07:10:45.134Z,27.1
2023-03-13T07:12:24.793Z,27.17
2023-03-13T07:14:04.712Z,27.19
2023-03-13T07:15:44.503Z,27.53
2023-03-13T07:17:24.270Z,27.83
2023-03-13T07:19:03.866Z,28.07
2023-03-13T07:20:43.745Z,28.67
2023-03-13T07:22:23.406Z,29.26
2023-03-13T07:24:03.289Z,29.46
2023-03-13T07:25:43.095Z,29.44
2023-03-13T07:27:22.819Z,29.44
2023-03-13T07:29:02.716Z,29.44
2023-03-13T07:30:42.413Z,29.41
2023-03-13T07:32:22.197Z,28.61
2023-03-13T07:34:01.832Z,28.31
2023-03-13T07:35:41.740Z,28.22
2023-03-13T07:37:21.344Z,28.22
2023-03-13T07:39:01.260Z,28.13
2023-03-13T07:40:40.865Z,28.14
2023-03-13T07:42:20.729Z,28.17
2023-03-13T07:44:00.536Z,28.13
2023-03-13T07:45:40.263Z,28.16
2023-03-13T07:47:20.125Z,28.24
2023-03-13T07:48:59.805Z,28.36
2023-03-13T07:50:39.552Z,28.13
2023-03-13T07:52:19.447Z,28.1
2023-03-13T07:53:59.181Z,28.1
2023-03-13T07:55:38.979Z,28.18
2023-03-13T07:57:18.654Z,28.34
2023-03-13T07:58:58.345Z,28.52
2023-03-13T08:00:38.222Z,28.57
2023-03-13T08:02:17.985Z,28.38
2023-03-13T08:03:57.736Z,28.69
2023-03-13T08:07:17.329Z,28.41
2023-03-13T08:08:57.048Z,28.32
2023-03-13T08:10:36.812Z,28.2
2023-03-13T08:12:16.598Z,28.18
2023-03-13T08:13:56.279Z,28.25
2023-03-13T08:15:36.150Z,28.36
2023-03-13T08:17:15.897Z,28.28
2023-03-13T08:18:55.564Z,28.17
2023-03-13T08:20:35.347Z,28.06
2023-03-13T08:22:15.094Z,28.11
2023-03-13T08:23:54.899Z,28.24
2023-03-13T08:25:34.653Z,28.32
2023-03-13T08:27:14.451Z,28.21
2023-03-13T08:28:54.184Z,28.14
2023-03-13T08:30:33.995Z,28.13
2023-03-13T08:32:13.722Z,28.13
2023-03-13T08:33:53.541Z,28.05
2023-03-13T08:35:33.327Z,27.93
2023-03-13T08:37:13.155Z,28.84
2023-03-13T08:38:52.785Z,28.22
2023-03-13T08:40:32.625Z,28.15
2023-03-13T08:42:12.334Z,28.03
2023-03-13T08:43:52.186Z,27.96
2023-03-13T08:45:31.871Z,27.89
2023-03-13T08:47:11.774Z,27.84
2023-03-13T08:48:51.530Z,27.9
2023-03-13T08:50:31.188Z,27.98
2023-03-13T08:52:10.962Z,28.01
2023-03-13T08:53:50.733Z,28.06
2023-03-13T08:55:30.495Z,28.07
2023-03-13T08:57:10.353Z,28
2023-03-13T08:58:50.107Z,28.05
2023-03-13T09:00:29.814Z,27.94
2023-03-13T09:02:09.570Z,27.95
2023-03-13T09:03:49.351Z,27.87
2023-03-13T09:05:29.121Z,27.86
2023-03-13T09:07:08.878Z,27.87
2023-03-13T09:08:48.655Z,27.87
2023-03-13T09:10:28.425Z,27.9
2023-03-13T09:12:08.202Z,27.95
2023-03-13T09:13:48.062Z,27.96
2023-03-13T09:15:27.877Z,27.99
2023-03-13T09:17:07.604Z,27.97
2023-03-13T09:18:47.284Z,27.97
2023-03-13T09:20:27.054Z,28
2023-03-13T09:22:06.813Z,28.08
2023-03-13T09:23:46.603Z,28.15
2023-03-13T09:25:26.410Z,28.04
2023-03-13T09:27:06.126Z,27.96
2023-03-13T09:28:45.950Z,27.96
2023-03-13T09:30:25.680Z,27.96
2023-03-13T09:32:05.472Z,27.98
2023-03-13T09:33:45.320Z,28.02
2023-03-13T09:35:24.978Z,28.06
2023-03-13T09:37:04.869Z,28.18
2023-03-13T09:38:44.546Z,28.17
2023-03-13T09:40:24.280Z,27.94
2023-03-13T09:42:04.135Z,27.92
2023-03-13T09:43:43.834Z,27.88
2023-03-13T09:45:23.787Z,27.9
2023-03-13T09:47:03.526Z,27.91
2023-03-13T09:48:43.130Z,27.87
2023-03-13T09:50:22.936Z,27.85
2023-03-13T09:52:02.764Z,27.94
2023-03-13T09:53:42.470Z,28.1
2023-03-13T09:55:22.215Z,28.56
2023-03-13T09:57:01.989Z,28.55
2023-03-13T09:58:41.795Z,28.37
2023-03-13T10:00:21.538Z,28.26
2023-03-13T10:02:01.285Z,28.19
2023-03-13T10:03:41.058Z,28.15
2023-03-13T10:05:20.820Z,28.09
2023-03-13T10:07:00.628Z,28.04
2023-03-13T10:08:40.365Z,28.03
2023-03-13T10:10:20.166Z,28.02
2023-03-13T10:11:59.918Z,28
2023-03-13T10:13:39.691Z,27.96
2023-03-13T10:15:19.455Z,27.91
2023-03-13T10:16:59.217Z,27.86
2023-03-13T10:18:38.999Z,27.88
2023-03-13T10:20:18.871Z,27.99
2023-03-13T10:21:58.541Z,28.11
2023-03-13T10:23:38.292Z,28.4
2023-03-13T10:25:18.082Z,29.56
2023-03-13T10:26:57.834Z,29.4
2023-03-13T10:28:37.607Z,29.4
2023-03-13T10:30:17.396Z,29.38
2023-03-13T10:31:57.153Z,29.39
2023-03-13T10:33:36.923Z,29.4
2023-03-13T10:35:16.692Z,29.37
2023-03-13T10:36:56.458Z,29.37
2023-03-13T10:38:36.233Z,29.39
2023-03-13T10:40:16.019Z,29.38
2023-03-13T10:41:55.785Z,29.37
2023-03-13T10:43:35.553Z,29.36
2023-03-13T10:45:15.305Z,29.25
2023-03-13T10:46:55.086Z,29.36
2023-03-13T10:48:34.847Z,29.36
2023-03-13T10:50:14.719Z,29.37
2023-03-13T10:51:54.394Z,29.36
2023-03-13T10:53:34.191Z,29.37
2023-03-13T10:55:13.937Z,29.36
2023-03-13T10:56:53.706Z,29.35
2023-03-13T10:58:33.547Z,29.34
2023-03-13T11:00:13.242Z,29.37
2023-03-13T11:01:53.010Z,29.34
2023-03-13T11:03:32.940Z,29.35
2023-03-13T11:05:12.547Z,29.33
2023-03-13T11:06:52.347Z,29.34
2023-03-13T11:08:32.099Z,29.33
2023-03-13T11:10:11.885Z,29.32
2023-03-13T11:11:51.706Z,29.33
2023-03-13T11:13:31.521Z,29.33
2023-03-13T11:15:11.181Z,29.34
2023-03-13T11:16:50.952Z,29.34
2023-03-13T11:18:30.735Z,29.33
2023-03-13T11:20:10.507Z,29.33
2023-03-13T11:21:50.302Z,29.33
2023-03-13T11:23:30.055Z,29.33
2023-03-13T11:25:09.799Z,29.32
2023-03-13T11:26:49.588Z,29.33
2023-03-13T11:28:29.346Z,29.31
2023-03-13T11:30:09.131Z,29.32
2023-03-13T11:31:48.895Z,29.32
2023-03-13T11:33:28.679Z,29.31
2023-03-13T11:35:08.421Z,29.29
2023-03-13T11:36:48.319Z,29.26
2023-03-13T11:38:28.160Z,29.32
2023-03-13T11:40:07.731Z,29.31
2023-03-13T11:41:47.577Z,29.31
2023-03-13T11:43:27.505Z,29.31
2023-03-13T11:45:07.212Z,29.29
2023-03-13T11:46:46.998Z,29.31
2023-03-13T11:48:26.743Z,29.29
2023-03-13T11:50:06.353Z,29.31
2023-03-13T11:51:46.173Z,29.31
2023-03-13T11:53:25.977Z,29.29
2023-03-13T11:55:05.719Z,29.3
2023-03-13T11:56:45.519Z,29.28
2023-03-13T11:58:25.276Z,29.28
2023-03-13T12:00:05.139Z,29.28
2023-03-13T12:01:44.889Z,29.28
2023-03-13T12:03:24.614Z,29.24
2023-03-13T12:05:04.305Z,29.29
2023-03-13T12:06:44.060Z,29.29
2023-03-13T12:08:23.831Z,29.28
2023-03-13T12:10:03.605Z,29.28
2023-03-13T12:11:43.406Z,29.28
2023-03-13T12:13:23.169Z,29.29
2023-03-13T12:15:02.952Z,29.28
2023-03-13T12:16:42.682Z,29.27
2023-03-13T12:18:22.459Z,29.28
2023-03-13T12:20:02.230Z,29.27
2023-03-13T12:21:42.017Z,29.27
2023-03-13T12:23:21.782Z,29.28
2023-03-13T12:25:01.549Z,29.27
2023-03-13T12:26:41.289Z,29.25
2023-03-13T12:28:21.105Z,29.25
2023-03-13T12:30:00.911Z,29.27
2023-03-13T12:31:40.728Z,29.27
2023-03-13T12:33:20.394Z,29.26
2023-03-13T12:35:00.165Z,29.27
2023-03-13T12:36:40.034Z,29.26
2023-03-13T12:38:19.807Z,29.27
2023-03-13T12:39:59.549Z,29.26
2023-03-13T12:41:39.254Z,29.26
2023-03-13T12:43:19.001Z,29.25
2023-03-13T12:44:58.817Z,29.25
2023-03-13T12:46:38.551Z,29.25
2023-03-13T12:48:18.329Z,29.26
2023-03-13T12:49:58.096Z,29.27
2023-03-13T12:51:37.908Z,29.23
2023-03-13T12:53:17.632Z,29.23
2023-03-13T12:54:57.411Z,29.15
2023-03-13T12:56:37.187Z,29.25
2023-03-13T12:58:16.952Z,29.24
2023-03-13T12:59:56.713Z,29.24
2023-03-13T13:01:36.493Z,29.24
2023-03-13T13:03:16.257Z,29.24
2023-03-13T13:04:56.029Z,29.22
2023-03-13T13:06:35.812Z,29.23
2023-03-13T13:08:15.570Z,29.22
2023-03-13T13:09:55.356Z,29.22
2023-03-13T13:11:35.116Z,29.23
2023-03-13T13:13:14.868Z,29.21
2023-03-13T13:14:54.647Z,29.23
2023-03-13T13:16:34.422Z,29.22
2023-03-13T13:18:14.196Z,29.21
2023-03-13T13:19:53.951Z,29.29
2023-03-13T13:21:33.725Z,29.06
2023-03-13T13:23:13.498Z,29.21
2023-03-13T13:24:53.260Z,29.22
2023-03-13T13:26:33.039Z,27.98
2023-03-13T13:28:12.882Z,27.84
2023-03-13T13:29:52.581Z,27.74
2023-03-13T13:31:32.358Z,27.66
2023-03-13T13:33:12.140Z,27.6
2023-03-13T13:34:51.886Z,27.54
2023-03-13T13:36:31.650Z,27.48
2023-03-13T13:38:11.428Z,27.43
2023-03-13T13:39:51.203Z,27.37
2023-03-13T13:41:30.965Z,27.41
2023-03-13T13:43:10.756Z,27.41
2023-03-13T13:44:50.505Z,27.4
2023-03-13T13:46:30.281Z,27.38
2023-03-13T13:48:10.048Z,27.41
2023-03-13T13:49:49.836Z,27.41
2023-03-13T13:51:29.605Z,27.39
2023-03-13T13:53:09.361Z,27.4
2023-03-13T13:54:49.130Z,27.39
2023-03-13T13:56:28.899Z,27.39
2023-03-13T13:58:08.690Z,27.38
2023-03-13T13:59:48.436Z,27.38
2023-03-13T14:01:28.221Z,27.38
2023-03-13T14:03:07.993Z,27.38
2023-03-13T14:04:47.764Z,27.39
2023-03-13T14:06:27.523Z,27.39
2023-03-13T14:08:07.388Z,27.39
2023-03-13T14:09:47.063Z,27.38
2023-03-13T14:11:26.855Z,27.37
2023-03-13T14:13:06.632Z,27.28
2023-03-13T14:14:46.369Z,27.38
2023-03-13T14:16:26.165Z,27.37
2023-03-13T14:18:05.919Z,27.37
2023-03-13T14:19:45.696Z,27.37
2023-03-13T14:21:25.497Z,27.38
2023-03-13T14:23:05.240Z,27.38
2023-03-13T14:24:45.062Z,27.36
2023-03-13T14:26:24.756Z,27.36
2023-03-13T14:28:04.536Z,27.37
2023-03-13T14:29:44.315Z,27.37
2023-03-13T14:31:24.097Z,27.36
2023-03-13T14:33:03.964Z,27.37
2023-03-13T14:34:43.618Z,27.36
2023-03-13T14:36:23.396Z,27.36
2023-03-13T14:38:03.163Z,27.35
2023-03-13T14:39:42.932Z,27.36
2023-03-13T14:41:22.703Z,27.36
2023-03-13T14:43:02.478Z,27.35
2023-03-13T14:44:42.244Z,27.35
2023-03-13T14:46:22.001Z,27.34
2023-03-13T14:48:01.799Z,27.36
2023-03-13T14:49:41.544Z,27.36
2023-03-13T14:51:21.317Z,27.36
2023-03-13T14:53:01.081Z,27.36
2023-03-13T14:54:40.875Z,27.35
2023-03-13T14:56:20.743Z,27.35
2023-03-13T14:58:00.386Z,27.36
2023-03-13T14:59:40.168Z,27.36
2023-03-13T15:01:19.949Z,27.34
2023-03-13T15:02:59.720Z,27.34
2023-03-13T15:04:39.478Z,27.23
2023-03-13T15:06:19.323Z,27.34
2023-03-13T15:07:59.008Z,27.35
2023-03-13T15:09:38.793Z,27.34
2023-03-13T15:11:18.558Z,27.34
2023-03-13T15:12:58.340Z,27.33
2023-03-13T15:14:38.112Z,27.34
2023-03-13T15:16:17.881Z,27.35
2023-03-13T15:17:57.649Z,27.35
2023-03-13T15:19:37.416Z,27.35
2023-03-13T15:21:17.187Z,27.35
2023-03-13T15:22:57.038Z,27.34
2023-03-13T15:24:36.784Z,27.33
2023-03-13T15:26:16.497Z,27.33
2023-03-13T15:27:56.263Z,27.33
2023-03-13T15:29:36.037Z,27.33
2023-03-13T15:31:15.813Z,27.27
2023-03-13T15:32:55.609Z,27.33
2023-03-13T15:34:35.350Z,27.33
2023-03-13T15:36:15.137Z,27.33
2023-03-13T15:37:54.900Z,27.34
2023-03-13T15:39:34.650Z,27.34
2023-03-13T15:41:14.419Z,27.34
2023-03-13T15:42:54.201Z,27.33
2023-03-13T15:44:33.994Z,27.33
2023-03-13T15:46:13.738Z,27.33
2023-03-13T15:47:53.646Z,27.33
2023-03-13T15:49:33.344Z,27.34
2023-03-13T15:51:13.053Z,27.32
2023-03-13T15:52:52.886Z,27.33
2023-03-13T15:54:32.606Z,27.33
2023-03-13T15:56:12.372Z,27.31
2023-03-13T15:57:52.138Z,27.34
2023-03-13T15:59:31.911Z,27.34
2023-03-13T16:01:11.672Z,27.34
2023-03-13T16:02:51.451Z,27.34
2023-03-13T16:04:31.228Z,27.34
2023-03-13T16:06:10.987Z,27.34
2023-03-13T16:07:50.772Z,27.32
2023-03-13T16:09:30.526Z,27.33
2023-03-13T16:11:10.291Z,27.34
2023-03-13T16:12:50.070Z,27.34
2023-03-13T16:14:29.835Z,27.34
2023-03-13T16:16:09.617Z,27.34
2023-03-13T16:17:49.419Z,27.34
2023-03-13T16:19:29.143Z,27.33
2023-03-13T16:21:08.916Z,27.33
2023-03-13T16:22:48.689Z,27.22
2023-03-13T16:24:28.489Z,27.33
2023-03-13T16:26:08.282Z,27.34
2023-03-13T16:27:48.001Z,27.34
2023-03-13T16:29:27.775Z,27.34
2023-03-13T16:31:07.544Z,27.33
2023-03-13T16:32:47.309Z,27.34
2023-03-13T16:34:27.083Z,27.33
2023-03-13T16:36:06.864Z,27.33
2023-03-13T16:37:46.639Z,27.33
2023-03-13T16:39:26.403Z,27.32
2023-03-13T16:41:06.199Z,27.28
2023-03-13T16:42:45.942Z,27.22
2023-03-13T16:44:25.723Z,27.16
2023-03-13T16:46:05.490Z,27.13
2023-03-13T16:47:45.253Z,27.09
2023-03-13T16:49:25.012Z,27
2023-03-13T16:51:04.823Z,27.05
2023-03-13T16:52:44.562Z,27.01
2023-03-13T16:54:24.354Z,26.98
2023-03-13T16:56:04.251Z,26.95
2023-03-13T16:57:44.026Z,26.93
2023-03-13T16:59:23.829Z,26.9
2023-03-13T17:01:03.551Z,26.88
2023-03-13T17:02:43.290Z,26.86
2023-03-13T17:04:23.096Z,26.82
2023-03-13T17:06:02.867Z,26.79
2023-03-13T17:07:42.595Z,26.76
2023-03-13T17:09:22.377Z,26.74
2023-03-13T17:11:02.211Z,26.71
2023-03-13T17:12:41.920Z,26.69
2023-03-13T17:14:21.748Z,26.67
2023-03-13T17:16:01.408Z,26.64
2023-03-13T17:17:41.057Z,26.62
2023-03-13T17:19:20.961Z,26.6
2023-03-13T17:21:00.791Z,26.58
2023-03-13T17:22:40.583Z,26.55
2023-03-13T17:24:20.121Z,26.54
2023-03-13T17:26:00.070Z,26.53
2023-03-13T17:27:39.857Z,26.52
2023-03-13T17:29:19.590Z,26.51
2023-03-13T17:30:59.407Z,26.49
2023-03-13T17:32:39.209Z,26.49
2023-03-13T17:34:18.901Z,26.47
2023-03-13T17:35:58.600Z,26.46
2023-03-13T17:37:38.403Z,26.44
2023-03-13T17:39:18.031Z,26.44
2023-03-13T17:40:57.983Z,26.43
2023-03-13T17:42:37.740Z,26.42
2023-03-13T17:44:17.529Z,26.41
2023-03-13T17:45:57.310Z,26.4
2023-03-13T17:47:37.042Z,26.39
2023-03-13T17:49:16.895Z,26.38
2023-03-13T17:50:56.556Z,26.37
2023-03-13T17:52:36.325Z,26.37
2023-03-13T17:54:16.179Z,26.36
2023-03-13T17:55:55.945Z,26.35
2023-03-13T17:57:35.652Z,26.34
2023-03-13T17:59:15.509Z,26.33
2023-03-13T18:00:55.109Z,26.32
2023-03-13T18:02:34.987Z,26.31
2023-03-13T18:04:14.750Z,26.31
2023-03-13T18:05:54.527Z,26.3
2023-03-13T18:07:34.254Z,26.3
2023-03-13T18:10:53.779Z,26.29
2023-03-13T18:12:33.453Z,26.28
2023-03-13T18:14:13.387Z,26.28
2023-03-13T18:15:53.017Z,26.27
2023-03-13T18:17:32.847Z,26.26
2023-03-13T18:19:12.648Z,26.26
2023-03-13T18:20:52.421Z,26.25
2023-03-13T18:22:31.987Z,26.25
2023-03-13T18:24:11.873Z,26.24
2023-03-13T18:25:51.674Z,26.24
2023-03-13T18:27:31.442Z,26.22
2023-03-13T18:29:11.098Z,26.23
2023-03-13T18:30:50.981Z,26.22
2023-03-13T18:32:30.729Z,26.22
2023-03-13T18:34:10.522Z,26.22
2023-03-13T18:35:50.299Z,26.21
2023-03-13T18:37:30.062Z,26.2
2023-03-13T18:39:09.844Z,26.2
2023-03-13T18:40:49.596Z,26.2
2023-03-13T18:42:29.359Z,26.2
2023-03-13T18:44:09.168Z,26.19
2023-03-13T18:45:48.731Z,26.19
2023-03-13T18:47:28.689Z,26.19
2023-03-13T18:49:08.472Z,26.18
2023-03-13T18:50:48.197Z,26.18
2023-03-13T18:52:27.952Z,26.17
2023-03-13T18:54:07.780Z,26.18
2023-03-13T18:55:47.496Z,26.17
2023-03-13T18:57:27.318Z,26.17
2023-03-13T18:59:07.054Z,26.17
2023-03-13T19:00:46.727Z,26.17
2023-03-13T19:02:26.615Z,26.16
2023-03-13T19:04:06.368Z,26.16
2023-03-13T19:05:46.106Z,26.15
2023-03-13T19:07:25.889Z,26.15
2023-03-13T19:09:05.660Z,26.15
2023-03-13T19:10:45.431Z,26.14
2023-03-13T19:12:25.232Z,26.14
2023-03-13T19:14:04.863Z,26.14
2023-03-13T19:15:44.779Z,26.14
2023-03-13T19:17:24.492Z,26.13
2023-03-13T19:19:04.242Z,26.14
2023-03-13T19:20:43.854Z,26.13
2023-03-13T19:22:23.826Z,26.13
2023-03-13T19:24:03.408Z,26.13
2023-03-13T19:25:43.337Z,26.13
2023-03-13T19:27:22.933Z,26.13
2023-03-13T19:29:02.948Z,26.12
2023-03-13T19:30:42.617Z,26.12
2023-03-13T19:32:22.498Z,26.12
2023-03-13T19:34:02.201Z,26.12
2023-03-13T19:35:41.986Z,26.12
2023-03-13T19:37:21.714Z,26.12
2023-03-13T19:39:01.529Z,26.11
2023-03-13T19:40:41.303Z,26.11
2023-03-13T19:42:21.067Z,26.09
2023-03-13T19:44:00.764Z,26.11
2023-03-13T19:45:40.352Z,26.1
2023-03-13T19:47:20.333Z,26.1
2023-03-13T19:49:00.106Z,26.1
2023-03-13T19:50:39.829Z,26.1
2023-03-13T19:52:19.583Z,26.1
2023-03-13T19:53:59.439Z,26.09
2023-03-13T19:55:39.042Z,26.1
2023-03-13T19:57:18.909Z,26.09
2023-03-13T19:58:58.646Z,26.09
2023-03-13T20:00:38.269Z,26.09
2023-03-13T20:02:18.128Z,26.09
2023-03-13T20:03:57.984Z,26.09
2023-03-13T20:05:37.735Z,26.08
2023-03-13T20:07:17.502Z,26.06
2023-03-13T20:08:57.289Z,26.08
2023-03-13T20:10:37.076Z,26.08
2023-03-13T20:12:16.822Z,26.08
2023-03-13T20:13:56.616Z,26.08
2023-03-13T20:15:36.395Z,26.08
2023-03-13T20:17:16.110Z,26.08
2023-03-13T20:18:55.895Z,26.08
2023-03-13T20:20:35.633Z,26.07
2023-03-13T20:22:15.410Z,26.07
2023-03-13T20:23:55.274Z,26.07
2023-03-13T20:25:34.962Z,26.07
2023-03-13T20:27:14.706Z,26.07
2023-03-13T20:28:54.497Z,26.06
2023-03-13T20:30:34.083Z,26.06
2023-03-13T20:32:14.066Z,26.04
2023-03-13T20:33:53.746Z,26.06
2023-03-13T20:35:33.531Z,26.06
2023-03-13T20:37:13.316Z,26.06
2023-03-13T20:38:53.030Z,26.06
2023-03-13T20:40:32.725Z,26.06
2023-03-13T20:42:12.566Z,26.06
2023-03-13T20:43:52.337Z,26.05
2023-03-13T20:45:32.169Z,26.05
2023-03-13T20:47:11.755Z,26.05
2023-03-13T20:48:51.520Z,26.05
2023-03-13T20:50:31.329Z,26.05
2023-03-13T20:52:11.065Z,26.05
2023-03-13T20:53:50.931Z,26.05
2023-03-13T20:55:30.750Z,26.04
2023-03-13T20:57:10.432Z,25.93
2023-03-13T20:58:50.260Z,26.05
2023-03-13T21:00:29.892Z,26.04
2023-03-13T21:02:09.651Z,26.04
2023-03-13T21:03:49.571Z,26.04
2023-03-13T21:05:29.274Z,26.04
2023-03-13T21:07:09.130Z,26.04
2023-03-13T21:08:48.856Z,26.04
2023-03-13T21:10:28.535Z,26.04
2023-03-13T21:12:08.369Z,26.04
2023-03-13T21:13:48.296Z,26.04
2023-03-13T21:15:27.954Z,26.04
2023-03-13T21:17:07.740Z,26.03
2023-03-13T21:18:47.487Z,26.03
2023-03-13T21:20:27.273Z,26.03
2023-03-13T21:22:07.048Z,25.86
2023-03-13T21:23:46.643Z,26.02
2023-03-13T21:25:26.555Z,26.03
2023-03-13T21:27:06.199Z,26.02
2023-03-13T21:28:45.944Z,26.02
2023-03-13T21:30:25.750Z,26.02
2023-03-13T21:32:05.522Z,26.02